Airfield :
LOGIN :

Register | Disclaimer

   EN    FR    IT 

 










Legend :    VFR   Marginal VFR   IFR   Intensive IFR   Very Intensive IFR
Visi :
Ceiling :
>= 8 km
>= 3000ft
5 to 8 km
1000 to 3000 ft
1500m to 5 km
500 to 1000 ft
800 to 1500m
200 to 500 ft
< 800m
< 200 ft
Symbols :   Thunderstorms  Fog  Heavy snow  Heavy precipitations  Wind > 20 kt
SIGMETs :     Misc.  Thunderstorms  Icing  Turbulence  Mountain Waves  Volcanic Ashes






- Airport Elevation : 299 ft
- IATA code : EDM


LFRI - La Roche Sur Yon - Les Ajoncs

CURRENT METAR :
  • 271730Z AUTO 22009KT 200V260 9999 -DZ BKN010/// BKN015/// BKN049/// ///TCU 09/08 Q1006 TEMPO 3000 SHRA BKN020TCU SCT030CB

EXPIRED METARs :
  • 271700Z AUTO 22009KT 9999 SCT009 BKN047 BKN062 08/08 Q1006 TEMPO 25025G45KT 3000 SHRA BKN020TCU SCT030CB
  • 271630Z AUTO 20008KT CAVOK 08/07 Q1005 TEMPO 25025G45KT 3000 SHRA BKN020TCU SCT030CB
  • 271600Z AUTO 23006KT 9999 FEW033/// SCT054/// BKN064/// ///CB 08/07 Q1006 TEMPO 1500 TSGS BECMG 24015G25KT SCT015 BKN019 BKN035
  • 271530Z AUTO 26012KT 7000 RA FEW016/// SCT022/// BKN038/// ///CB 08/07 Q1006 TEMPO 1500 TSGS BECMG 24015G25KT SCT015 BKN019 BKN035
  • 271500Z AUTO 23017KT 190V260 9999 FEW015/// BKN020/// BKN028/// ///CB 11/09 Q1006 TEMPO 22020G30KT 1500 TSGS BKN010 BKN020CB

TAF TAF LFRI
Valid from the 27 at 18:00 until the 28 at 18:00 UTC


271700Z 2718/2818 22010KT 9999 SCT020
TEMPO 2718/2818 3000 SHRA BKN020TCU SCT030CB
TEMPO 2721/2818 25020G30KT
TEMPO 2723/2801 25025G50KT
PROB30
TEMPO 2815/2817 27024G45KT



MET'MAP, your aeronautical weather chart ! - Copyright ORBIFLY December 2007 - Disclaimer

ORBIFLY MET'MAP TEAM :

Programming & Development : Alexandra Zaïnal
Concept & original design : Baudouin d'Aumeries
Assistance for programming : Marc-Olivier Méhu
Technical & hardware support : Manuel Goepfert

Contact : metmap@orbifly.com




SOURCES & CREDITS :

   NOAA